Time;durP1;ratioP1;P1;durP2;ratioP2;P2;SDS_P1;SDS_P2;PMS_P1;PMS_P2;Temp;Humidity;BMP_temperature;BMP_pressure;BME280_temperature;BME280_humidity;BME280_pressure;Samples;Min_cycle;Max_cycle;Signal;HPM_P1;HPM_P2
2023/07/20 00:05:26;;;;;;;7.43;1.73;;;;;;;24.97;64.48;99765.38;30858364;28;20137;-73
2023/07/20 00:20:28;;;;;;;4.18;1.98;;;;;;;24.69;66.22;99751.84;30854299;28;20055;-73
2023/07/20 00:35:30;;;;;;;6.53;1.55;;;;;;;24.59;67.06;99759.75;30856237;28;20584;-72
2023/07/20 00:50:33;;;;;;;3.10;1.75;;;;;;;24.62;67.93;99733.75;30857292;28;20047;-73
2023/07/20 01:06:01;;;;;;;3.97;2.03;;;;;;;24.79;67.97;99728.75;30857002;28;20087;-73
2023/07/20 01:21:08;;;;;;;4.88;1.80;;;;;;;24.72;67.22;99723.78;30854878;28;20071;-72
2023/07/20 01:36:10;;;;;;;6.35;2.10;;;;;;;24.70;66.81;99717.25;30873014;28;20065;-72
2023/07/20 01:51:13;;;;;;;2.83;1.85;;;;;;;24.60;67.13;99716.88;30875110;28;20066;-73
2023/07/20 02:06:14;;;;;;;3.97;1.90;;;;;;;24.21;69.45;99713.81;30873928;28;20161;-72
2023/07/20 02:21:17;;;;;;;3.70;2.00;;;;;;;24.21;71.26;99730.44;30868030;28;20150;-73
2023/07/20 02:36:19;;;;;;;8.43;2.53;;;;;;;24.17;71.38;99741.81;30874388;28;20125;-73
2023/07/20 02:51:21;;;;;;;4.10;1.67;;;;;;;24.32;72.40;99741.44;30866755;28;20050;-73
2023/07/20 03:06:23;;;;;;;11.15;2.38;;;;;;;24.63;72.44;99753.94;30869764;28;20126;-74
2023/07/20 03:21:26;;;;;;;7.73;2.43;;;;;;;24.73;74.60;99743.97;30860969;28;20055;-71
2023/07/20 03:36:28;;;;;;;5.15;2.40;;;;;;;24.82;76.49;99724.91;30863991;28;20073;-74
2023/07/20 03:51:30;;;;;;;5.28;3.00;;;;;;;25.53;80.52;99731.19;30862933;28;20462;-72
2023/07/20 04:06:32;;;;;;;7.38;2.75;;;;;;;25.90;84.55;99742.19;30858824;28;20553;-73
2023/07/20 04:21:40;;;;;;;5.87;3.40;;;;;;;26.17;89.96;99738.16;30858173;28;20157;-73
2023/07/20 04:36:42;;;;;;;5.57;3.60;;;;;;;25.69;100.00;99744.09;30856306;28;20042;-74
2023/07/20 04:51:45;;;;;;;9.23;4.20;;;;;;;25.80;100.00;99727.19;30856373;28;21373;-73
2023/07/20 05:06:47;;;;;;;7.13;4.43;;;;;;;26.01;100.00;99686.34;30865195;28;20139;-75
2023/07/20 05:21:49;;;;;;;8.65;5.32;;;;;;;25.98;100.00;99609.59;30879078;28;20051;-74
2023/07/20 05:36:51;;;;;;;11.35;5.30;;;;;;;26.20;100.00;99568.69;30874085;28;20564;-74
2023/07/20 05:51:56;;;;;;;7.25;4.55;;;;;;;26.96;100.00;99547.16;30874616;28;20057;-74
2023/07/20 06:06:58;;;;;;;10.48;5.15;;;;;;;27.30;100.00;99527.53;30874412;28;20050;-73
2023/07/20 06:22:00;;;;;;;9.73;4.80;;;;;;;27.32;100.00;99511.03;30869629;28;20508;-73
2023/07/20 06:37:04;;;;;;;14.03;5.27;;;;;;;28.12;100.00;99529.22;30868034;28;20066;-74
2023/07/20 06:52:07;;;;;;;9.00;5.05;;;;;;;28.96;100.00;99534.22;30866355;28;20054;-74
2023/07/20 07:07:09;;;;;;;7.50;5.13;;;;;;;28.60;100.00;99514.81;30861940;28;20138;-72
2023/07/20 07:22:12;;;;;;;9.53;5.33;;;;;;;29.55;100.00;99556.31;30860669;28;20046;-76
2023/07/20 07:37:13;;;;;;;;;;;;;;;30.36;100.00;99622.25;30860706;28;20055;-75
2023/07/20 07:52:16;;;;;;;8.50;5.20;;;;;;;30.33;100.00;99606.59;30860487;28;19933;-73
2023/07/20 08:07:18;;;;;;;9.68;5.60;;;;;;;30.66;100.00;99622.13;30861514;28;20078;-73
2023/07/20 08:22:20;;;;;;;10.48;5.78;;;;;;;31.19;100.00;99660.97;30852107;28;20062;-73
2023/07/20 08:37:22;;;;;;;7.00;5.93;;;;;;;31.29;100.00;99683.53;30855235;28;20053;-72
2023/07/20 08:52:24;;;;;;;10.18;6.00;;;;;;;31.45;97.16;99698.91;30852675;28;20050;-75
2023/07/20 09:07:27;;;;;;;9.07;6.55;;;;;;;31.74;92.58;99709.72;30851572;28;20039;-75
2023/07/20 09:22:30;;;;;;;8.45;6.30;;;;;;;32.02;80.94;99734.50;30855571;28;20051;-76
2023/07/20 09:37:34;;;;;;;15.60;9.82;;;;;;;31.82;79.83;99749.66;30852175;28;20098;-75
2023/07/20 09:52:40;;;;;;;14.48;6.20;;;;;;;30.47;95.68;99742.25;30860670;28;20500;-76
2023/07/20 10:07:50;;;;;;;8.93;5.57;;;;;;;29.38;100.00;99736.56;30871229;28;20054;-76
2023/07/20 10:23:15;;;;;;;9.27;5.18;;;;;;;28.08;100.00;99757.63;30871204;28;20062;-79
2023/07/20 10:38:17;;;;;;;12.23;6.80;;;;;;;27.26;100.00;99681.13;30871124;28;20054;-74
2023/07/20 10:53:19;;;;;;;9.03;5.67;;;;;;;27.60;100.00;99644.09;30866678;28;20157;-75
2023/07/20 11:08:45;;;;;;;11.00;6.32;;;;;;;27.77;100.00;99605.34;30865667;28;20469;-75
2023/07/20 11:23:53;;;;;;;8.70;6.25;;;;;;;28.30;100.00;99563.00;30857670;28;20191;-75
2023/07/20 11:38:58;;;;;;;7.45;5.55;;;;;;;28.88;100.00;99553.03;30858202;28;20054;-73
2023/07/20 11:54:02;;;;;;;11.70;8.23;;;;;;;29.76;100.00;99557.53;30863115;28;20074;-77
2023/07/20 12:09:04;;;;;;;12.05;7.20;;;;;;;30.11;100.00;99549.41;30863470;28;20194;-75
2023/07/20 12:24:09;;;;;;;12.60;7.15;;;;;;;30.46;100.00;99553.13;30853893;28;20154;-74
2023/07/20 12:39:11;;;;;;;13.02;6.78;;;;;;;30.22;100.00;99563.00;30855254;28;20047;-74
2023/07/20 12:54:34;;;;;;;10.18;6.80;;;;;;;29.86;100.00;99571.69;30854658;28;20507;-76
2023/07/20 13:09:35;;;;;;;;;;;;;;;29.67;100.00;99632.91;30857725;28;20051;-75
2023/07/20 13:24:38;;;;;;;17.05;9.05;;;;;;;30.05;100.00;99604.84;30859582;28;19934;-77
2023/07/20 13:39:41;;;;;;;38.92;18.60;;;;;;;29.93;100.00;99610.09;30877749;28;20050;-76
2023/07/20 13:54:42;;;;;;;;;;;;;;;29.29;100.00;99614.09;30892088;28;20053;-76
2023/07/20 14:09:47;;;;;;;19.92;11.07;;;;;;;28.90;100.00;99581.16;30881335;28;20270;-77
2023/07/20 14:24:53;;;;;;;15.43;10.85;;;;;;;29.11;100.00;99578.91;30873957;28;20073;-77
2023/07/20 14:39:55;;;;;;;13.55;9.13;;;;;;;29.13;100.00;99571.47;30887137;28;20050;-77
2023/07/20 14:54:57;;;;;;;12.57;7.90;;;;;;;29.21;100.00;99565.88;30865953;28;20051;-75
2023/07/20 15:09:59;;;;;;;;;;;;;;;29.51;100.00;99563.06;30875172;28;20055;-76
2023/07/20 15:25:06;;;;;;;11.02;7.93;;;;;;;29.41;100.00;99523.00;30864157;28;19985;-75
2023/07/20 15:40:09;;;;;;;12.18;8.68;;;;;;;29.41;100.00;99539.03;30862509;28;20430;-75
2023/07/20 15:55:12;;;;;;;11.20;9.52;;;;;;;29.48;100.00;99546.66;30856769;28;20141;-77
2023/07/20 16:10:14;;;;;;;14.23;8.27;;;;;;;29.20;100.00;99530.84;30860132;28;20050;-74
2023/07/20 16:25:16;;;;;;;15.13;8.98;;;;;;;29.07;100.00;99517.06;30858874;28;20065;-77
2023/07/20 16:40:19;;;;;;;12.63;8.95;;;;;;;28.98;100.00;99532.38;30857575;28;20062;-74
2023/07/20 16:55:23;;;;;;;16.05;9.07;;;;;;;28.90;100.00;99525.28;30858412;28;20058;-74
2023/07/20 17:10:27;;;;;;;12.40;9.50;;;;;;;28.70;100.00;99507.38;30880442;28;20046;-75
2023/07/20 17:25:30;;;;;;;15.63;10.73;;;;;;;28.67;100.00;99489.69;30882703;28;20138;-78
2023/07/20 17:40:33;;;;;;;11.38;7.88;;;;;;;28.54;100.00;99481.53;30879931;28;20498;-76
2023/07/20 17:55:38;;;;;;;13.38;8.57;;;;;;;28.50;100.00;99464.38;30872718;28;20109;-77
2023/07/20 18:10:40;;;;;;;13.83;9.43;;;;;;;28.45;100.00;99485.59;30863005;28;20468;-79
2023/07/20 18:25:42;;;;;;;13.30;8.07;;;;;;;28.33;100.00;99486.53;30856522;28;20623;-77
2023/07/20 18:40:44;;;;;;;11.98;7.43;;;;;;;28.34;100.00;99460.13;30868346;28;20074;-76
2023/07/20 18:55:46;;;;;;;9.93;7.00;;;;;;;28.36;100.00;99491.72;30868543;28;20074;-79
2023/07/20 19:10:48;;;;;;;12.90;7.37;;;;;;;28.27;100.00;99472.00;30866491;28;20065;-79
2023/07/20 19:25:53;;;;;;;10.35;7.97;;;;;;;28.13;100.00;99451.84;30864311;28;20065;-80
2023/07/20 19:40:56;;;;;;;11.27;7.97;;;;;;;27.89;100.00;99422.44;30864095;28;20073;-79
2023/07/20 19:56:00;;;;;;;11.00;7.93;;;;;;;27.70;100.00;99410.88;30868838;28;20571;-77
2023/07/20 20:11:02;;;;;;;10.50;7.45;;;;;;;27.65;100.00;99375.53;30862423;28;20138;-77
2023/07/20 20:26:08;;;;;;;13.07;7.93;;;;;;;27.66;100.00;99382.59;30860608;28;20058;-77
2023/07/20 20:41:10;;;;;;;;;;;;;;;27.67;100.00;99372.94;30863634;28;20089;-79
2023/07/20 20:56:12;;;;;;;15.48;8.77;;;;;;;27.38;100.00;99364.69;30860098;28;20387;-75
2023/07/20 21:11:14;;;;;;;13.80;9.63;;;;;;;26.54;100.00;99273.66;30858258;28;20054;-86
2023/07/20 21:26:16;;;;;;;14.20;10.57;;;;;;;25.62;100.00;99166.63;30868566;28;20086;-79
2023/07/20 21:41:18;;;;;;;22.25;12.63;;;;;;;25.72;100.00;99125.97;30867611;28;20066;-78
2023/07/20 21:56:20;;;;;;;17.92;11.93;;;;;;;25.67;100.00;99090.72;30879367;28;21559;-80
2023/07/20 22:11:23;;;;;;;17.17;10.48;;;;;;;25.63;100.00;99101.44;30882310;28;20397;-78
2023/07/20 22:26:25;;;;;;;15.33;10.20;;;;;;;25.76;100.00;99115.22;30882889;28;20531;-81
2023/07/20 22:41:28;;;;;;;20.00;9.93;;;;;;;25.45;100.00;99076.13;30879808;28;20046;-80
2023/07/20 22:56:31;;;;;;;17.67;9.70;;;;;;;25.46;100.00;99083.16;30876899;28;20074;-77
2023/07/20 23:11:33;;;;;;;11.88;9.02;;;;;;;25.53;100.00;99125.41;30867893;28;20089;-76
2023/07/20 23:26:36;;;;;;;12.20;9.20;;;;;;;25.39;100.00;99124.78;30862501;28;20050;-76
2023/07/20 23:41:38;;;;;;;18.07;8.13;;;;;;;25.40;100.00;99127.00;30862529;28;20659;-75
2023/07/20 23:56:40;;;;;;;10.98;6.72;;;;;;;25.70;100.00;99120.97;30859587;28;20154;-75
